createdAt,value
2023-10-27T00:01:01.285Z,4.27
2023-10-27T00:03:28.076Z,4.40
2023-10-27T00:05:55.268Z,4.70
2023-10-27T00:08:22.089Z,4.43
2023-10-27T00:10:49.155Z,4.40
2023-10-27T00:13:15.956Z,4.80
2023-10-27T00:15:42.914Z,4.17
2023-10-27T00:18:09.662Z,4.03
2023-10-27T00:20:36.423Z,4.27
2023-10-27T00:23:03.177Z,4.60
2023-10-27T00:25:30.040Z,4.47
2023-10-27T00:27:56.922Z,4.67
2023-10-27T00:30:23.947Z,5.10
2023-10-27T00:32:51.079Z,5.57
2023-10-27T00:35:30.334Z,5.47
2023-10-27T00:37:59.293Z,5.40
2023-10-27T00:40:26.661Z,5.60
2023-10-27T00:42:53.597Z,5.70
2023-10-27T00:45:20.685Z,4.63
2023-10-27T00:47:47.721Z,5.30
2023-10-27T00:50:14.876Z,5.13
2023-10-27T00:52:41.973Z,5.30
2023-10-27T00:55:09.463Z,4.50
2023-10-27T00:57:37.555Z,4.50
2023-10-27T01:00:05.509Z,5.47
2023-10-27T01:02:32.813Z,4.67
2023-10-27T01:05:00.469Z,5.13
2023-10-27T01:07:27.411Z,4.80
2023-10-27T01:10:05.405Z,4.80
2023-10-27T01:12:33.103Z,5.13
2023-10-27T01:15:00.411Z,5.00
2023-10-27T01:17:27.233Z,5.07
2023-10-27T01:19:54.493Z,4.53
2023-10-27T01:22:21.407Z,4.23
2023-10-27T01:24:50.022Z,3.70
2023-10-27T01:27:17.456Z,4.40
2023-10-27T01:29:44.673Z,3.90
2023-10-27T01:32:11.537Z,3.30
2023-10-27T01:34:38.398Z,3.43
2023-10-27T01:37:05.338Z,3.27
2023-10-27T01:39:32.138Z,3.70
2023-10-27T01:41:59.167Z,3.37
2023-10-27T01:44:26.083Z,3.57
2023-10-27T01:46:52.924Z,3.80
2023-10-27T01:49:19.928Z,3.77
2023-10-27T01:52:10.318Z,3.53
2023-10-27T01:54:37.508Z,4.00
2023-10-27T01:57:04.722Z,3.83
2023-10-27T01:59:31.634Z,4.43
2023-10-27T02:01:58.688Z,4.27
2023-10-27T02:04:27.194Z,4.47
2023-10-27T02:06:55.650Z,4.10
2023-10-27T02:09:22.458Z,4.00
2023-10-27T02:11:50.538Z,4.43
2023-10-27T02:14:17.818Z,5.33
2023-10-27T02:16:45.223Z,5.70
2023-10-27T02:19:14.770Z,5.83
2023-10-27T02:21:41.727Z,6.63
2023-10-27T02:24:08.625Z,6.93
2023-10-27T02:26:37.046Z,7.67
2023-10-27T02:29:04.922Z,8.50
2023-10-27T02:31:31.685Z,7.63
2023-10-27T02:33:58.552Z,8.73
2023-10-27T02:36:26.645Z,8.40
2023-10-27T02:38:55.079Z,7.87
2023-10-27T02:41:21.979Z,7.97
2023-10-27T02:43:48.862Z,7.10
2023-10-27T02:46:15.817Z,7.50
2023-10-27T02:48:43.679Z,6.30
2023-10-27T02:51:11.042Z,5.80
2023-10-27T02:53:37.889Z,5.27
2023-10-27T02:56:11.452Z,4.80
2023-10-27T02:58:38.537Z,3.83
2023-10-27T03:01:09.472Z,3.40
2023-10-27T03:03:37.403Z,3.50
2023-10-27T03:06:04.953Z,3.17
2023-10-27T03:08:35.091Z,3.33
2023-10-27T03:11:02.160Z,3.27
2023-10-27T03:13:29.250Z,2.70
2023-10-27T03:15:56.234Z,2.50
2023-10-27T03:18:23.188Z,2.60
2023-10-27T03:21:07.167Z,2.33
2023-10-27T03:23:33.936Z,1.90
2023-10-27T03:26:00.881Z,1.80
2023-10-27T03:28:27.841Z,1.90
2023-10-27T03:30:55.109Z,1.93
2023-10-27T03:33:21.975Z,1.73
2023-10-27T03:35:55.145Z,1.87
2023-10-27T03:38:22.117Z,1.83
2023-10-27T03:40:50.186Z,2.00
2023-10-27T03:43:18.015Z,2.30
2023-10-27T03:45:45.220Z,2.33
2023-10-27T03:48:12.171Z,2.60
2023-10-27T03:50:39.097Z,2.90
2023-10-27T03:53:06.078Z,3.23
2023-10-27T03:55:33.114Z,3.50
2023-10-27T03:58:20.094Z,3.27
2023-10-27T04:00:48.373Z,3.80
2023-10-27T04:03:15.821Z,3.73
2023-10-27T04:05:42.757Z,4.30
2023-10-27T04:08:09.639Z,4.13
2023-10-27T04:10:37.567Z,4.63
2023-10-27T04:13:05.557Z,4.67
2023-10-27T04:15:32.884Z,4.20
2023-10-27T04:17:59.934Z,4.00
2023-10-27T04:20:27.773Z,3.97
2023-10-27T04:22:54.555Z,4.60
2023-10-27T04:25:21.336Z,4.50
2023-10-27T04:27:48.285Z,3.93
2023-10-27T04:30:16.718Z,4.47
2023-10-27T04:32:43.641Z,3.17
2023-10-27T04:35:16.009Z,2.13
2023-10-27T04:37:42.888Z,2.60
2023-10-27T04:40:10.657Z,2.10
2023-10-27T04:42:37.693Z,2.30
2023-10-27T04:45:05.418Z,2.20
2023-10-27T04:47:32.295Z,2.17
2023-10-27T04:49:59.100Z,2.57
2023-10-27T04:52:26.484Z,2.70
2023-10-27T04:54:54.508Z,2.53
2023-10-27T04:57:21.390Z,2.93
2023-10-27T04:59:48.123Z,3.50
2023-10-27T05:02:25.058Z,3.60
2023-10-27T05:04:51.890Z,3.47
2023-10-27T05:07:18.779Z,4.30
2023-10-27T05:09:46.236Z,4.00
2023-10-27T05:12:13.246Z,4.17
2023-10-27T05:14:40.015Z,4.93
2023-10-27T05:17:06.805Z,5.00
2023-10-27T05:19:34.914Z,5.50
2023-10-27T05:22:06.861Z,5.73
2023-10-27T05:24:34.613Z,5.63
2023-10-27T05:27:02.390Z,6.20
2023-10-27T05:29:29.277Z,6.60
2023-10-27T05:31:56.158Z,5.67
2023-10-27T05:34:23.649Z,6.77
2023-10-27T05:36:50.854Z,6.30
2023-10-27T05:39:17.793Z,6.90
2023-10-27T05:41:48.465Z,6.63
2023-10-27T05:44:15.980Z,6.60
2023-10-27T05:46:43.220Z,6.57
2023-10-27T05:49:10.084Z,6.67
2023-10-27T05:51:37.470Z,7.10
2023-10-27T05:54:04.779Z,7.13
2023-10-27T05:56:32.026Z,7.10
2023-10-27T05:58:59.012Z,7.00
2023-10-27T06:01:26.155Z,6.93
2023-10-27T06:03:54.972Z,7.57
2023-10-27T06:06:21.917Z,6.50
2023-10-27T06:08:49.839Z,7.03
2023-10-27T06:11:16.744Z,5.87
2023-10-27T06:13:43.576Z,6.10
2023-10-27T06:16:10.427Z,6.10
2023-10-27T06:18:37.510Z,5.90
2023-10-27T06:21:05.550Z,5.43
2023-10-27T06:23:32.574Z,5.77
2023-10-27T06:25:59.901Z,5.67
2023-10-27T06:28:27.017Z,5.27
2023-10-27T06:30:53.819Z,5.70
2023-10-27T06:33:21.733Z,5.77
2023-10-27T06:35:49.028Z,5.53
2023-10-27T06:38:16.279Z,5.87
2023-10-27T06:40:43.107Z,5.90
2023-10-27T06:43:10.035Z,6.20
2023-10-27T06:45:36.865Z,6.10
2023-10-27T06:48:04.529Z,5.47
2023-10-27T06:50:31.563Z,6.30
2023-10-27T06:53:03.891Z,6.03
2023-10-27T06:55:31.322Z,6.67
2023-10-27T06:57:59.343Z,6.20
2023-10-27T07:00:26.493Z,6.40
2023-10-27T07:02:57.409Z,6.57
2023-10-27T07:05:25.402Z,6.23
2023-10-27T07:07:53.588Z,6.33
2023-10-27T07:10:20.567Z,6.23
2023-10-27T07:12:48.410Z,6.60
2023-10-27T07:15:15.612Z,6.20
2023-10-27T07:17:42.930Z,6.47
2023-10-27T07:20:10.604Z,6.20
2023-10-27T07:22:37.996Z,6.70
2023-10-27T07:25:05.909Z,6.20
2023-10-27T07:27:33.088Z,6.10
2023-10-27T07:33:28.753Z,3.30
2023-10-27T07:35:55.680Z,2.60
2023-10-27T07:38:23.812Z,2.17
2023-10-27T07:40:51.465Z,3.10
2023-10-27T07:43:20.236Z,4.67
2023-10-27T07:45:47.226Z,5.00
2023-10-27T07:48:14.186Z,5.40
2023-10-27T07:50:41.722Z,6.10
2023-10-27T07:53:08.540Z,5.87
2023-10-27T07:55:36.713Z,6.70
2023-10-27T07:58:06.398Z,6.60
2023-10-27T08:00:33.524Z,6.00
2023-10-27T08:03:01.045Z,6.13
2023-10-27T08:05:29.933Z,6.77
2023-10-27T08:07:57.126Z,6.93
2023-10-27T08:10:24.027Z,6.93
2023-10-27T08:12:50.806Z,7.80
2023-10-27T08:15:17.799Z,6.77
2023-10-27T08:17:44.641Z,7.50
2023-10-27T08:20:12.960Z,6.40
2023-10-27T08:22:43.185Z,6.50
2023-10-27T08:25:12.609Z,5.33
2023-10-27T08:27:39.744Z,3.77
2023-10-27T08:30:09.166Z,6.30
2023-10-27T08:32:35.930Z,5.77
2023-10-27T08:35:02.752Z,5.47
2023-10-27T08:37:29.538Z,6.37
2023-10-27T08:39:56.458Z,5.97
2023-10-27T08:42:23.628Z,6.10
2023-10-27T08:44:50.560Z,5.63
2023-10-27T08:47:17.435Z,6.00
2023-10-27T08:49:44.259Z,5.90
2023-10-27T08:52:11.481Z,7.00
2023-10-27T08:54:42.444Z,6.50
2023-10-27T08:57:09.869Z,6.47
2023-10-27T08:59:37.239Z,7.07
2023-10-27T09:02:06.060Z,5.93
2023-10-27T09:04:35.455Z,5.60
2023-10-27T09:07:03.007Z,5.70
2023-10-27T09:09:29.831Z,5.67
2023-10-27T09:11:57.487Z,5.40
2023-10-27T09:14:32.278Z,5.50
2023-10-27T09:17:09.050Z,4.87
2023-10-27T09:19:36.716Z,4.87
2023-10-27T09:22:07.100Z,5.37
2023-10-27T09:24:34.112Z,4.90
2023-10-27T09:27:01.521Z,5.20
2023-10-27T09:29:29.017Z,4.97
2023-10-27T09:33:12.712Z,4.93
2023-10-27T09:35:39.969Z,5.03
2023-10-27T09:38:07.503Z,4.87
2023-10-27T09:40:37.322Z,4.60
2023-10-27T09:43:06.196Z,5.13
2023-10-27T09:45:37.150Z,4.30
2023-10-27T09:48:22.847Z,4.67
2023-10-27T09:50:50.937Z,3.50
2023-10-27T09:53:18.631Z,2.80
2023-10-27T09:55:48.509Z,2.77
2023-10-27T09:58:31.034Z,2.70
2023-10-27T10:00:59.232Z,2.30
2023-10-27T10:03:29.047Z,2.07
2023-10-27T10:06:46.689Z,2.30
2023-10-27T10:09:20.328Z,2.10
2023-10-27T10:11:54.569Z,2.03
2023-10-27T10:14:44.001Z,1.73
2023-10-27T10:17:11.110Z,1.90
2023-10-27T10:19:51.601Z,1.70
2023-10-27T10:22:41.376Z,0.97
2023-10-27T10:25:27.193Z,1.30
2023-10-27T10:28:09.301Z,1.00
2023-10-27T10:30:42.365Z,1.40
2023-10-27T10:33:21.044Z,1.00
2023-10-27T10:35:48.820Z,1.20
2023-10-27T10:38:25.480Z,1.07
2023-10-27T10:40:54.185Z,1.30
2023-10-27T10:43:25.450Z,1.37
2023-10-27T10:46:04.571Z,1.00
2023-10-27T10:48:34.142Z,1.03
2023-10-27T10:51:30.681Z,1.20
2023-10-27T10:53:58.274Z,1.07
2023-10-27T10:56:25.824Z,0.83
2023-10-27T10:59:09.593Z,0.70
2023-10-27T11:01:36.705Z,1.00
2023-10-27T11:04:03.731Z,0.50
2023-10-27T11:06:31.022Z,0.50
2023-10-27T11:08:58.724Z,0.60
2023-10-27T11:11:34.994Z,0.60
2023-10-27T11:14:05.635Z,0.50
2023-10-27T11:16:32.863Z,0.53
2023-10-27T11:19:01.209Z,0.30
2023-10-27T11:21:30.735Z,0.30
2023-10-27T11:23:58.104Z,0.60
2023-10-27T11:26:26.720Z,0.60
2023-10-27T11:28:57.347Z,0.53
2023-10-27T11:31:41.889Z,0.60
2023-10-27T11:34:10.442Z,0.70
2023-10-27T11:37:04.914Z,1.20
2023-10-27T11:39:36.691Z,1.00
2023-10-27T11:42:04.328Z,0.90
2023-10-27T11:44:32.934Z,0.80
2023-10-27T11:47:03.080Z,0.60
2023-10-27T11:49:30.344Z,0.70
2023-10-27T11:51:58.899Z,0.80
2023-10-27T11:54:28.037Z,0.43
2023-10-27T11:56:55.314Z,0.60
2023-10-27T11:59:31.401Z,0.43
2023-10-27T12:01:58.754Z,0.50
2023-10-27T12:04:25.886Z,0.60
2023-10-27T12:06:55.169Z,0.80
2023-10-27T12:09:22.521Z,0.80
2023-10-27T12:11:49.812Z,0.70
2023-10-27T12:14:16.792Z,0.60
2023-10-27T12:16:43.813Z,0.80
2023-10-27T12:19:15.031Z,0.90
2023-10-27T12:21:42.773Z,0.80
2023-10-27T12:24:10.435Z,0.90
2023-10-27T12:26:37.326Z,0.80
2023-10-27T12:29:05.997Z,0.80
2023-10-27T12:31:36.323Z,0.73
2023-10-27T12:34:04.798Z,1.40
2023-10-27T12:36:31.823Z,1.20
2023-10-27T12:38:58.794Z,1.00
2023-10-27T12:41:25.819Z,1.10
2023-10-27T12:43:52.639Z,1.00
2023-10-27T12:46:19.601Z,1.00
2023-10-27T12:48:48.624Z,0.97
2023-10-27T12:51:17.407Z,0.73
2023-10-27T12:53:44.932Z,1.30
2023-10-27T12:56:12.107Z,0.73
2023-10-27T12:58:39.022Z,0.57
2023-10-27T13:01:05.959Z,1.07
2023-10-27T13:03:32.818Z,1.00
2023-10-27T13:05:59.713Z,1.03
2023-10-27T13:08:26.718Z,1.07
2023-10-27T13:10:53.704Z,1.00
2023-10-27T13:13:20.783Z,1.10
2023-10-27T13:15:47.605Z,1.10
2023-10-27T13:18:15.409Z,1.10
2023-10-27T13:20:42.416Z,1.27
2023-10-27T13:23:09.159Z,1.10
2023-10-27T13:25:36.494Z,1.03
2023-10-27T13:28:05.209Z,1.30
2023-10-27T13:30:32.285Z,1.20
2023-10-27T13:32:59.548Z,1.20
2023-10-27T13:35:26.397Z,1.17
2023-10-27T13:37:55.026Z,1.27
2023-10-27T13:40:22.404Z,0.93
2023-10-27T13:42:49.325Z,1.30
2023-10-27T13:45:17.099Z,1.00
2023-10-27T13:47:46.666Z,1.20
2023-10-27T13:50:14.406Z,1.40
2023-10-27T13:52:41.414Z,1.20
2023-10-27T13:55:12.457Z,1.07
2023-10-27T13:57:39.665Z,1.50
2023-10-27T14:00:11.239Z,1.43
2023-10-27T14:02:39.094Z,1.50
2023-10-27T14:05:06.434Z,1.13
2023-10-27T14:07:33.812Z,1.37
2023-10-27T14:10:01.090Z,1.20
2023-10-27T14:12:27.910Z,1.30
2023-10-27T14:14:54.686Z,1.13
2023-10-27T14:17:22.055Z,1.37
2023-10-27T14:19:50.784Z,1.37
2023-10-27T14:22:17.999Z,1.50
2023-10-27T14:24:47.339Z,1.93
2023-10-27T14:27:16.608Z,1.60
2023-10-27T14:29:44.473Z,1.27
2023-10-27T14:32:11.293Z,2.50
2023-10-27T14:34:39.666Z,1.97
2023-10-27T14:37:06.691Z,1.40
2023-10-27T14:39:36.174Z,1.67
2023-10-27T14:42:05.766Z,1.43
2023-10-27T14:44:33.935Z,1.80
2023-10-27T14:47:00.732Z,1.83
2023-10-27T14:49:27.864Z,1.40
2023-10-27T14:51:54.716Z,1.77
2023-10-27T14:54:21.529Z,1.53
2023-10-27T14:56:48.442Z,1.70
2023-10-27T14:59:15.234Z,1.57
2023-10-27T15:01:42.010Z,1.40
2023-10-27T15:04:11.680Z,1.60
2023-10-27T15:06:38.503Z,1.77
2023-10-27T15:09:05.394Z,1.70
2023-10-27T15:11:34.757Z,1.80
2023-10-27T15:14:01.877Z,1.77
2023-10-27T15:16:34.204Z,1.90
2023-10-27T15:19:01.473Z,2.20
2023-10-27T15:21:28.737Z,2.17
2023-10-27T15:23:55.770Z,1.97
2023-10-27T15:26:25.517Z,1.57
2023-10-27T15:28:52.335Z,1.80
2023-10-27T15:31:21.176Z,1.60
2023-10-27T15:33:48.149Z,1.90
2023-10-27T15:36:15.818Z,1.83
2023-10-27T15:38:44.215Z,1.60
2023-10-27T15:41:25.315Z,1.60
2023-10-27T15:43:52.269Z,2.03
2023-10-27T15:46:19.524Z,2.20
2023-10-27T15:48:46.584Z,2.00
2023-10-27T15:51:18.037Z,2.37
2023-10-27T15:53:49.754Z,1.60
2023-10-27T15:56:17.793Z,1.50
2023-10-27T15:58:53.189Z,1.43
2023-10-27T16:01:25.532Z,1.67
2023-10-27T16:03:52.817Z,1.40
2023-10-27T16:06:21.209Z,1.30
2023-10-27T16:08:48.181Z,1.27
2023-10-27T16:11:15.700Z,1.50
2023-10-27T16:13:44.145Z,1.20
2023-10-27T16:16:12.095Z,1.30
2023-10-27T16:18:39.748Z,1.50
2023-10-27T16:21:06.985Z,1.50
2023-10-27T16:23:33.811Z,1.60
2023-10-27T16:26:07.326Z,1.77
2023-10-27T16:28:34.560Z,2.07
2023-10-27T16:31:03.215Z,1.70
2023-10-27T16:33:30.364Z,1.80
2023-10-27T16:36:01.354Z,1.77
2023-10-27T16:38:28.596Z,1.70
2023-10-27T16:40:55.454Z,1.80
2023-10-27T16:43:38.550Z,1.70
2023-10-27T16:46:06.394Z,1.63
2023-10-27T16:48:33.418Z,1.20
2023-10-27T16:51:10.960Z,1.77
2023-10-27T16:53:39.741Z,1.50
2023-10-27T16:56:08.265Z,1.60
2023-10-27T16:58:35.270Z,2.13
2023-10-27T17:01:03.487Z,2.10
2023-10-27T17:03:37.551Z,1.63
2023-10-27T17:06:06.600Z,1.77
2023-10-27T17:08:34.535Z,1.80
2023-10-27T17:11:01.574Z,1.77
2023-10-27T17:13:28.512Z,1.50
2023-10-27T17:16:08.795Z,1.60
2023-10-27T17:18:38.375Z,1.80
2023-10-27T17:21:22.482Z,1.50
2023-10-27T17:24:59.328Z,1.40
2023-10-27T17:27:29.171Z,1.70
2023-10-27T17:29:55.938Z,1.70
2023-10-27T17:32:22.691Z,1.80
2023-10-27T17:34:52.480Z,2.13
2023-10-27T17:37:19.311Z,1.87
2023-10-27T17:39:46.162Z,2.00
2023-10-27T17:42:13.002Z,2.30
2023-10-27T17:44:40.022Z,2.20
2023-10-27T17:47:06.869Z,2.10
2023-10-27T17:49:34.043Z,2.37
2023-10-27T17:52:01.183Z,2.33
2023-10-27T17:54:30.612Z,2.77
2023-10-27T18:01:17.830Z,2.73
2023-10-27T18:03:44.840Z,3.53
2023-10-27T18:06:16.528Z,1.77
2023-10-27T18:08:43.901Z,1.80
2023-10-27T18:11:10.894Z,2.03
2023-10-27T18:13:38.308Z,1.40
2023-10-27T18:16:07.093Z,1.30
2023-10-27T18:18:35.083Z,1.33
2023-10-27T18:21:07.282Z,1.40
2023-10-27T18:23:36.017Z,2.07
2023-10-27T18:26:18.750Z,2.20
2023-10-27T18:28:49.237Z,1.67
2023-10-27T18:31:19.340Z,2.10
2023-10-27T18:34:32.835Z,1.77
2023-10-27T18:37:01.459Z,1.67
2023-10-27T18:39:28.616Z,1.60
2023-10-27T18:41:57.482Z,1.53
2023-10-27T18:44:25.343Z,2.10
2023-10-27T18:46:52.755Z,2.07
2023-10-27T18:49:19.580Z,2.07
2023-10-27T18:51:46.438Z,3.70
2023-10-27T18:54:17.301Z,4.00
2023-10-27T18:56:47.949Z,3.80
2023-10-27T18:59:15.016Z,3.73
2023-10-27T19:01:41.905Z,3.90
2023-10-27T19:04:10.675Z,4.20
2023-10-27T19:06:37.618Z,3.77
2023-10-27T19:09:07.539Z,3.40
2023-10-27T19:11:36.273Z,3.37
2023-10-27T19:14:03.217Z,3.30
2023-10-27T19:16:30.548Z,3.20
2023-10-27T19:18:57.314Z,3.60
2023-10-27T19:21:24.354Z,3.17
2023-10-27T19:23:59.823Z,3.20
2023-10-27T19:26:27.299Z,3.40
2023-10-27T19:28:56.049Z,3.90
2023-10-27T19:31:31.815Z,3.40
2023-10-27T19:34:00.496Z,3.90
2023-10-27T19:36:29.721Z,3.10
2023-10-27T19:38:56.804Z,2.47
2023-10-27T19:41:26.416Z,2.70
2023-10-27T19:48:16.121Z,2.73
2023-10-27T19:50:47.024Z,2.80
2023-10-27T19:53:15.200Z,3.07
2023-10-27T19:55:42.964Z,2.50
2023-10-27T19:58:11.470Z,2.47
2023-10-27T20:00:39.809Z,2.67
2023-10-27T20:03:18.553Z,2.70
2023-10-27T20:05:47.415Z,2.53
2023-10-27T20:08:14.342Z,2.50
2023-10-27T20:10:45.872Z,2.50
2023-10-27T20:13:13.065Z,2.10
2023-10-27T20:15:41.915Z,2.90
2023-10-27T20:18:09.907Z,3.07
2023-10-27T20:20:37.765Z,2.77
2023-10-27T20:23:04.923Z,2.67
2023-10-27T20:25:36.069Z,2.77
2023-10-27T20:28:03.983Z,2.67
2023-10-27T20:30:31.209Z,2.40
2023-10-27T20:32:59.688Z,2.20
2023-10-27T20:35:27.121Z,2.20
2023-10-27T20:37:54.134Z,2.40
2023-10-27T20:40:22.788Z,3.00
2023-10-27T20:43:21.672Z,3.07
2023-10-27T20:45:48.798Z,2.50
2023-10-27T20:48:16.075Z,2.90
2023-10-27T20:50:42.883Z,2.80
2023-10-27T20:53:09.861Z,2.90
2023-10-27T20:55:38.295Z,3.13
2023-10-27T20:58:05.252Z,2.70
2023-10-27T21:00:33.687Z,3.43
2023-10-27T21:03:05.077Z,7.90
2023-10-27T21:05:32.901Z,5.83
2023-10-27T21:08:02.813Z,4.40
2023-10-27T21:10:30.868Z,4.47
2023-10-27T21:12:57.906Z,4.47
2023-10-27T21:15:25.140Z,5.00
2023-10-27T21:17:51.937Z,5.00
2023-10-27T21:20:19.596Z,3.60
2023-10-27T21:22:46.731Z,5.97
2023-10-27T21:25:13.774Z,4.40
2023-10-27T21:27:40.642Z,4.00
2023-10-27T21:30:08.050Z,4.07
2023-10-27T21:32:37.408Z,3.77
2023-10-27T21:35:05.817Z,3.77
2023-10-27T21:37:32.833Z,3.60
2023-10-27T21:40:00.044Z,3.33
2023-10-27T21:42:27.040Z,3.20
2023-10-27T21:44:53.882Z,3.70
2023-10-27T21:47:20.797Z,3.70
2023-10-27T21:49:47.850Z,3.57
2023-10-27T21:52:15.208Z,3.37
2023-10-27T21:54:42.207Z,3.60
2023-10-27T21:57:10.472Z,3.53
2023-10-27T21:59:40.158Z,3.80
2023-10-27T22:02:07.045Z,3.70
2023-10-27T22:04:34.873Z,3.20
2023-10-27T22:07:02.140Z,3.60
2023-10-27T22:09:29.741Z,3.50
2023-10-27T22:11:57.023Z,4.10
2023-10-27T22:14:24.079Z,3.53
2023-10-27T22:16:51.171Z,3.80
2023-10-27T22:19:18.151Z,3.60
2023-10-27T22:21:45.430Z,4.27
2023-10-27T22:24:18.447Z,3.70
2023-10-27T22:26:46.819Z,3.73
2023-10-27T22:29:14.055Z,4.00
2023-10-27T22:32:08.276Z,3.97
2023-10-27T22:34:35.423Z,4.23
2023-10-27T22:37:02.890Z,4.60
2023-10-27T22:39:31.204Z,4.70
2023-10-27T22:41:58.074Z,4.00
2023-10-27T22:44:26.369Z,4.43
2023-10-27T22:46:53.457Z,4.13
2023-10-27T22:49:21.054Z,4.30
2023-10-27T22:51:48.941Z,4.37
2023-10-27T22:54:15.782Z,4.33
2023-10-27T22:56:42.748Z,4.43
2023-10-27T22:59:09.584Z,4.47
2023-10-27T23:01:36.548Z,4.07
2023-10-27T23:04:03.621Z,3.97
2023-10-27T23:06:30.560Z,4.13
2023-10-27T23:08:59.270Z,4.10
2023-10-27T23:11:27.075Z,4.20
2023-10-27T23:13:54.081Z,3.93
2023-10-27T23:16:21.158Z,3.97
2023-10-27T23:18:48.252Z,3.90
2023-10-27T23:21:15.354Z,4.23
2023-10-27T23:23:44.185Z,3.93
2023-10-27T23:26:12.310Z,3.97
2023-10-27T23:28:42.895Z,4.00
2023-10-27T23:31:12.027Z,4.00
2023-10-27T23:33:40.592Z,4.23
2023-10-27T23:36:11.928Z,3.60
2023-10-27T23:38:39.762Z,3.90
2023-10-27T23:41:07.403Z,4.07
2023-10-27T23:43:34.820Z,4.00
2023-10-27T23:46:02.694Z,4.10
2023-10-27T23:48:30.354Z,4.20
2023-10-27T23:51:00.540Z,4.00
2023-10-27T23:53:31.939Z,3.80
2023-10-27T23:56:00.813Z,3.70
2023-10-27T23:58:29.531Z,3.70
